createdAt,value
2022-11-03T00:01:12.918Z,13.50
2022-11-03T00:03:39.522Z,13.40
2022-11-03T00:06:06.297Z,13.40
2022-11-03T00:08:41.563Z,13.50
2022-11-03T00:11:13.693Z,13.40
2022-11-03T00:13:43.173Z,13.40
2022-11-03T00:16:12.228Z,13.40
2022-11-03T00:18:39.772Z,13.40
2022-11-03T00:21:08.659Z,13.50
2022-11-03T00:23:40.486Z,13.40
2022-11-03T00:26:24.064Z,13.40
2022-11-03T00:28:52.930Z,13.40
2022-11-03T00:31:31.208Z,13.30
2022-11-03T00:33:59.351Z,13.30
2022-11-03T00:36:31.038Z,13.40
2022-11-03T00:38:58.016Z,13.30
2022-11-03T00:41:26.727Z,13.30
2022-11-03T00:43:53.918Z,13.30
2022-11-03T00:46:22.278Z,13.30
2022-11-03T00:48:49.258Z,13.30
2022-11-03T00:51:18.717Z,13.30
2022-11-03T00:53:47.991Z,13.30
2022-11-03T00:56:36.305Z,13.30
2022-11-03T00:59:04.609Z,13.30
2022-11-03T01:01:37.046Z,13.30
2022-11-03T01:04:24.443Z,13.30
2022-11-03T01:06:53.620Z,13.30
2022-11-03T01:09:25.695Z,13.40
2022-11-03T01:12:07.160Z,13.40
2022-11-03T01:14:36.902Z,13.30
2022-11-03T01:17:08.414Z,13.30
2022-11-03T01:19:35.072Z,13.30
2022-11-03T01:22:04.190Z,13.30
2022-11-03T01:24:37.035Z,13.30
2022-11-03T01:27:03.943Z,13.30
2022-11-03T01:29:30.523Z,13.30
2022-11-03T01:31:58.120Z,13.30
2022-11-03T01:34:24.690Z,13.30
2022-11-03T01:36:51.460Z,13.30
2022-11-03T01:39:19.391Z,13.30
2022-11-03T01:41:48.008Z,13.30
2022-11-03T01:44:14.517Z,13.30
2022-11-03T01:47:11.933Z,13.30
2022-11-03T01:49:42.297Z,13.30
2022-11-03T01:52:34.181Z,13.30
2022-11-03T01:55:04.602Z,13.30
2022-11-03T01:57:37.623Z,13.30
2022-11-03T02:00:05.258Z,13.30
2022-11-03T02:02:32.140Z,13.30
2022-11-03T02:05:00.767Z,13.30
2022-11-03T02:07:51.816Z,13.40
2022-11-03T02:10:18.915Z,13.30
2022-11-03T02:12:45.894Z,13.30
2022-11-03T02:15:16.118Z,13.30
2022-11-03T02:17:43.586Z,13.30
2022-11-03T02:20:13.801Z,13.30
2022-11-03T02:23:03.102Z,13.30
2022-11-03T02:25:57.834Z,13.40
2022-11-03T02:28:30.037Z,13.30
2022-11-03T02:31:29.284Z,13.30
2022-11-03T02:34:06.713Z,13.30
2022-11-03T02:36:59.212Z,13.30
2022-11-03T02:39:41.100Z,13.30
2022-11-03T02:42:10.528Z,13.30
2022-11-03T02:44:39.111Z,13.30
2022-11-03T02:47:11.647Z,13.30
2022-11-03T02:49:49.948Z,13.30
2022-11-03T02:52:40.308Z,13.30
2022-11-03T02:55:33.988Z,13.30
2022-11-03T02:58:23.228Z,13.20
2022-11-03T03:01:15.001Z,13.20
2022-11-03T03:03:53.494Z,13.20
2022-11-03T03:06:45.856Z,13.20
2022-11-03T03:09:20.022Z,13.20
2022-11-03T03:11:47.988Z,13.30
2022-11-03T03:14:22.860Z,13.30
2022-11-03T03:17:00.617Z,13.30
2022-11-03T03:19:30.260Z,13.30
2022-11-03T03:22:01.274Z,13.30
2022-11-03T03:24:37.357Z,13.20
2022-11-03T03:27:08.904Z,13.20
2022-11-03T03:29:41.739Z,13.30
2022-11-03T03:32:10.830Z,13.30
2022-11-03T03:34:40.804Z,13.30
2022-11-03T03:37:09.228Z,13.20
2022-11-03T03:39:39.539Z,13.20
2022-11-03T03:42:10.119Z,13.30
2022-11-03T03:44:38.863Z,13.30
2022-11-03T03:47:12.346Z,13.20
2022-11-03T03:49:39.182Z,13.20
2022-11-03T03:52:06.307Z,13.30
2022-11-03T03:54:32.838Z,13.30
2022-11-03T03:57:05.356Z,13.30
2022-11-03T03:59:31.971Z,13.30
2022-11-03T04:01:59.184Z,13.30
2022-11-03T04:04:25.848Z,13.30
2022-11-03T04:07:12.367Z,13.30
2022-11-03T04:09:38.983Z,13.30
2022-11-03T04:12:24.281Z,13.30
2022-11-03T04:15:09.242Z,13.30
2022-11-03T04:17:55.098Z,13.30
2022-11-03T04:20:39.898Z,13.30
2022-11-03T04:23:06.428Z,13.30
2022-11-03T04:25:34.622Z,13.30
2022-11-03T04:28:01.915Z,13.30
2022-11-03T04:30:28.492Z,13.30
2022-11-03T04:32:55.031Z,13.30
2022-11-03T04:35:27.688Z,13.30
2022-11-03T04:37:58.410Z,13.30
2022-11-03T04:40:25.313Z,13.30
2022-11-03T04:42:52.060Z,13.30
2022-11-03T04:45:30.105Z,13.30
2022-11-03T04:48:00.049Z,13.30
2022-11-03T04:50:26.894Z,13.30
2022-11-03T04:52:58.617Z,13.30
2022-11-03T04:55:25.933Z,13.40
2022-11-03T04:58:00.248Z,13.30
2022-11-03T05:00:27.086Z,13.30
2022-11-03T05:02:56.087Z,13.30
2022-11-03T05:05:26.092Z,13.30
2022-11-03T05:07:55.407Z,13.20
2022-11-03T05:10:26.136Z,13.30
2022-11-03T05:12:54.818Z,13.30
2022-11-03T05:15:30.158Z,13.30
2022-11-03T05:17:58.878Z,13.30
2022-11-03T05:20:36.631Z,13.30
2022-11-03T05:23:04.964Z,13.30
2022-11-03T05:25:39.427Z,13.30
2022-11-03T05:28:20.835Z,13.30
2022-11-03T05:30:49.091Z,13.30
2022-11-03T05:33:20.915Z,13.30
2022-11-03T05:35:47.898Z,13.30
2022-11-03T05:38:16.864Z,13.30
2022-11-03T05:40:43.584Z,13.30
2022-11-03T05:43:13.588Z,13.40
2022-11-03T05:45:40.390Z,13.40
2022-11-03T05:48:30.875Z,13.40
2022-11-03T05:51:00.414Z,13.40
2022-11-03T05:53:38.554Z,13.40
2022-11-03T05:56:06.640Z,13.40
2022-11-03T05:58:38.892Z,13.40
2022-11-03T06:01:11.795Z,13.40
2022-11-03T06:03:39.203Z,13.40
2022-11-03T06:06:18.714Z,13.30
2022-11-03T06:08:46.251Z,13.30
2022-11-03T06:11:36.935Z,13.30
2022-11-03T06:14:23.974Z,13.30
2022-11-03T06:17:11.792Z,13.30
2022-11-03T06:19:42.282Z,13.30
2022-11-03T06:22:25.806Z,13.30
2022-11-03T06:25:00.136Z,13.30
2022-11-03T06:27:30.756Z,13.30
2022-11-03T06:30:03.778Z,13.30
2022-11-03T06:32:30.566Z,13.30
2022-11-03T06:34:58.894Z,13.30
2022-11-03T06:37:29.992Z,13.30
2022-11-03T06:40:16.887Z,13.40
2022-11-03T06:42:43.533Z,13.40
2022-11-03T06:45:24.071Z,13.40
2022-11-03T06:47:53.088Z,13.30
2022-11-03T06:50:29.987Z,13.30
2022-11-03T06:52:57.660Z,13.30
2022-11-03T06:55:33.104Z,13.30
2022-11-03T06:58:04.896Z,13.30
2022-11-03T07:00:34.181Z,13.30
2022-11-03T07:03:20.355Z,13.30
2022-11-03T07:05:47.407Z,13.30
2022-11-03T07:08:31.019Z,13.30
2022-11-03T07:11:02.422Z,13.30
2022-11-03T07:13:32.620Z,13.30
2022-11-03T07:15:59.393Z,13.30
2022-11-03T07:18:30.675Z,13.40
2022-11-03T07:20:58.336Z,13.40
2022-11-03T07:23:29.016Z,13.40
2022-11-03T07:26:00.173Z,13.30
2022-11-03T07:28:34.147Z,13.30
2022-11-03T07:31:02.613Z,13.30
2022-11-03T07:33:31.823Z,13.30
2022-11-03T07:36:16.602Z,13.40
2022-11-03T07:38:46.556Z,13.30
2022-11-03T07:41:22.759Z,13.30
2022-11-03T07:43:59.995Z,13.30
2022-11-03T07:46:26.996Z,13.30
2022-11-03T07:48:57.053Z,13.30
2022-11-03T07:51:31.879Z,13.30
2022-11-03T07:54:16.563Z,13.30
2022-11-03T07:56:46.686Z,13.30
2022-11-03T07:59:18.915Z,13.30
2022-11-03T08:01:47.741Z,13.40
2022-11-03T08:04:20.400Z,13.30
2022-11-03T08:06:48.321Z,13.30
2022-11-03T08:09:15.232Z,13.30
2022-11-03T08:11:41.961Z,13.30
2022-11-03T08:14:09.215Z,13.30
2022-11-03T08:16:36.092Z,13.40
2022-11-03T08:19:02.879Z,13.40
2022-11-03T08:21:29.479Z,13.40
2022-11-03T08:23:56.112Z,13.40
2022-11-03T08:26:22.726Z,13.30
2022-11-03T08:28:49.532Z,13.30
2022-11-03T08:31:16.689Z,13.30
2022-11-03T08:33:44.480Z,13.40
2022-11-03T08:36:11.826Z,13.40
2022-11-03T08:38:38.545Z,13.40
2022-11-03T08:41:05.378Z,13.40
2022-11-03T08:43:31.927Z,13.40
2022-11-03T08:46:05.624Z,13.40
2022-11-03T08:48:40.144Z,13.40
2022-11-03T08:51:08.391Z,13.40
2022-11-03T08:53:35.442Z,13.40
2022-11-03T08:56:01.995Z,13.50
2022-11-03T08:58:28.551Z,13.50
2022-11-03T09:00:55.123Z,13.60
2022-11-03T09:03:21.768Z,13.60
2022-11-03T09:05:48.441Z,13.60
2022-11-03T09:11:01.579Z,13.80
2022-11-03T09:13:28.132Z,13.80
2022-11-03T09:15:54.697Z,13.80
2022-11-03T09:18:22.233Z,13.80
2022-11-03T09:20:48.824Z,13.80
2022-11-03T09:23:15.381Z,13.80
2022-11-03T09:25:41.911Z,13.80
2022-11-03T09:28:08.747Z,13.80
2022-11-03T09:30:35.537Z,13.80
2022-11-03T09:33:02.150Z,13.80
2022-11-03T09:35:28.680Z,13.80
2022-11-03T09:37:55.310Z,13.80
2022-11-03T09:40:22.041Z,13.80
2022-11-03T09:42:48.787Z,13.80
2022-11-03T09:45:15.427Z,13.90
2022-11-03T09:47:43.625Z,13.90
2022-11-03T09:50:19.317Z,13.90
2022-11-03T09:52:51.940Z,13.90
2022-11-03T09:55:24.003Z,13.90
2022-11-03T09:57:57.471Z,13.80
2022-11-03T10:00:24.770Z,13.90
2022-11-03T10:02:51.428Z,13.90
2022-11-03T10:05:25.196Z,13.90
2022-11-03T10:08:03.639Z,13.90
2022-11-03T10:10:30.753Z,13.90
2022-11-03T10:12:58.764Z,13.90
2022-11-03T10:15:27.010Z,13.90
2022-11-03T10:17:54.652Z,13.90
2022-11-03T10:20:22.505Z,13.90
2022-11-03T10:22:52.902Z,13.90
2022-11-03T10:25:38.931Z,13.90
2022-11-03T10:28:26.769Z,13.90
2022-11-03T10:31:14.522Z,13.90
2022-11-03T10:33:51.897Z,13.90
2022-11-03T10:36:18.495Z,13.90
2022-11-03T10:38:45.569Z,13.90
2022-11-03T10:41:25.657Z,14.00
2022-11-03T10:44:05.871Z,14.00
2022-11-03T10:49:20.768Z,14.00
2022-11-03T10:51:49.989Z,14.00
2022-11-03T10:54:18.591Z,14.00
2022-11-03T10:56:46.636Z,14.10
2022-11-03T10:59:22.303Z,14.20
2022-11-03T11:01:49.112Z,14.10
2022-11-03T11:04:20.810Z,14.10
2022-11-03T11:06:47.688Z,14.20
2022-11-03T11:09:20.724Z,14.20
2022-11-03T11:12:14.910Z,14.20
2022-11-03T11:14:53.286Z,14.20
2022-11-03T11:17:38.086Z,14.20
2022-11-03T11:20:19.587Z,14.20
2022-11-03T11:22:46.160Z,14.20
2022-11-03T11:25:13.316Z,14.20
2022-11-03T11:27:39.799Z,14.20
2022-11-03T11:30:27.815Z,14.20
2022-11-03T11:33:23.084Z,14.20
2022-11-03T11:35:49.618Z,14.30
2022-11-03T11:38:55.442Z,14.30
2022-11-03T11:41:57.468Z,14.30
2022-11-03T11:44:57.951Z,14.30
2022-11-03T11:47:24.741Z,14.30
2022-11-03T11:50:06.662Z,14.40
2022-11-03T11:52:50.301Z,14.40
2022-11-03T11:55:20.135Z,14.40
2022-11-03T11:57:47.571Z,14.40
2022-11-03T12:00:25.897Z,14.40
2022-11-03T12:02:53.596Z,14.40
2022-11-03T12:05:33.294Z,14.40
2022-11-03T12:08:00.306Z,14.40
2022-11-03T12:10:31.608Z,14.40
2022-11-03T12:12:59.884Z,14.40
2022-11-03T12:15:55.430Z,14.50
2022-11-03T12:18:47.650Z,14.50
2022-11-03T12:21:50.324Z,14.50
2022-11-03T12:24:33.020Z,14.50
2022-11-03T12:27:00.755Z,14.50
2022-11-03T12:29:27.661Z,14.50
2022-11-03T12:31:54.429Z,14.50
2022-11-03T12:34:21.383Z,14.50
2022-11-03T12:36:51.781Z,14.50
2022-11-03T12:39:21.432Z,14.50
2022-11-03T12:41:48.070Z,14.60
2022-11-03T12:44:14.709Z,14.50
2022-11-03T12:46:41.285Z,14.60
2022-11-03T12:49:08.490Z,14.50
2022-11-03T12:51:35.117Z,14.60
2022-11-03T12:54:01.938Z,14.60
2022-11-03T12:56:28.524Z,14.60
2022-11-03T12:58:55.083Z,14.60
2022-11-03T13:01:22.310Z,14.60
2022-11-03T13:03:49.757Z,14.60
2022-11-03T13:06:16.352Z,14.60
2022-11-03T13:08:44.036Z,14.60
2022-11-03T13:11:30.544Z,14.60
2022-11-03T13:13:57.201Z,14.60
2022-11-03T13:16:23.861Z,14.60
2022-11-03T13:18:50.543Z,14.60
2022-11-03T13:21:17.899Z,14.60
2022-11-03T13:23:44.503Z,14.60
2022-11-03T13:26:11.247Z,14.60
2022-11-03T13:28:37.834Z,14.60
2022-11-03T13:31:04.435Z,14.60
2022-11-03T13:33:30.958Z,14.60
2022-11-03T13:35:57.640Z,14.60
2022-11-03T13:38:24.274Z,14.60
2022-11-03T13:40:57.813Z,14.60
2022-11-03T13:43:25.997Z,14.60
2022-11-03T13:45:53.125Z,14.60
2022-11-03T13:49:19.993Z,14.60
2022-11-03T13:51:06.652Z,14.60
2022-11-03T13:56:22.126Z,14.60
2022-11-03T14:01:36.516Z,14.50
2022-11-03T14:06:50.313Z,14.50
2022-11-03T14:09:16.855Z,14.50
2022-11-03T14:12:02.256Z,14.50
2022-11-03T14:14:28.907Z,14.50
2022-11-03T14:16:55.653Z,14.50
2022-11-03T14:19:30.747Z,14.50
2022-11-03T14:22:02.084Z,14.50
2022-11-03T14:24:28.797Z,14.50
2022-11-03T14:26:55.351Z,14.50
2022-11-03T14:29:21.982Z,14.50
2022-11-03T14:31:48.562Z,14.50
2022-11-03T14:34:15.207Z,14.50
2022-11-03T14:36:42.234Z,14.50
2022-11-03T14:39:08.882Z,14.50
2022-11-03T14:41:53.847Z,14.50
2022-11-03T14:44:20.466Z,14.50
2022-11-03T14:46:47.038Z,14.50
2022-11-03T14:49:13.580Z,14.40
2022-11-03T14:51:40.189Z,14.40
2022-11-03T14:54:06.903Z,14.40
2022-11-03T14:56:33.459Z,14.50
2022-11-03T14:59:00.045Z,14.40
2022-11-03T15:01:26.765Z,14.40
2022-11-03T15:03:53.596Z,14.50
2022-11-03T15:06:20.182Z,14.50
2022-11-03T15:08:48.913Z,14.50
2022-11-03T15:11:18.616Z,14.50
2022-11-03T15:13:47.232Z,14.40
2022-11-03T15:16:16.507Z,14.40
2022-11-03T15:18:44.589Z,14.40
2022-11-03T15:21:11.515Z,14.40
2022-11-03T15:26:25.066Z,14.40
2022-11-03T15:28:51.709Z,14.40
2022-11-03T15:31:18.265Z,14.40
2022-11-03T15:33:44.817Z,14.40
2022-11-03T15:36:11.947Z,14.40
2022-11-03T15:38:38.680Z,14.40
2022-11-03T15:41:17.231Z,14.40
2022-11-03T15:43:44.316Z,14.40
2022-11-03T15:46:11.326Z,14.40
2022-11-03T15:48:38.616Z,14.40
2022-11-03T15:51:05.824Z,14.40
2022-11-03T15:53:32.762Z,14.40
2022-11-03T15:55:59.420Z,14.40
2022-11-03T15:58:26.348Z,14.40
2022-11-03T16:00:53.002Z,14.40
2022-11-03T16:03:19.686Z,14.40
2022-11-03T16:05:46.260Z,14.40
2022-11-03T16:08:13.367Z,14.40
2022-11-03T16:10:42.768Z,14.30
2022-11-03T16:13:14.584Z,14.30
2022-11-03T16:15:41.177Z,14.30
2022-11-03T16:18:08.071Z,14.30
2022-11-03T16:20:35.034Z,14.30
2022-11-03T16:23:02.263Z,14.30
2022-11-03T16:25:28.817Z,14.30
2022-11-03T16:27:55.386Z,14.30
2022-11-03T16:30:22.078Z,14.30
2022-11-03T16:32:53.039Z,14.30
2022-11-03T16:35:20.667Z,14.30
2022-11-03T16:37:47.370Z,14.30
2022-11-03T16:40:19.043Z,14.30
2022-11-03T16:42:46.307Z,14.30
2022-11-03T16:45:36.387Z,14.20
2022-11-03T16:48:04.708Z,14.20
2022-11-03T16:50:32.645Z,14.20
2022-11-03T16:52:59.238Z,14.20
2022-11-03T16:55:26.916Z,14.20
2022-11-03T16:57:53.523Z,14.20
2022-11-03T17:00:20.559Z,14.00
2022-11-03T17:02:47.640Z,14.00
2022-11-03T17:05:16.655Z,14.10
2022-11-03T17:07:51.690Z,14.10
2022-11-03T17:10:20.025Z,14.10
2022-11-03T17:12:46.592Z,14.10
2022-11-03T17:15:13.194Z,14.10
2022-11-03T17:17:39.822Z,14.10
2022-11-03T17:20:06.818Z,14.10
2022-11-03T17:22:33.387Z,14.10
2022-11-03T17:25:01.695Z,14.10
2022-11-03T17:27:38.180Z,14.10
2022-11-03T17:30:08.999Z,14.10
2022-11-03T17:32:43.123Z,14.00
2022-11-03T17:35:17.479Z,14.00
2022-11-03T17:37:44.556Z,14.00
2022-11-03T17:40:16.460Z,14.10
2022-11-03T17:42:44.023Z,14.10
2022-11-03T17:45:15.776Z,14.00
2022-11-03T17:47:42.913Z,14.00
2022-11-03T17:50:14.718Z,14.10
2022-11-03T17:52:41.798Z,14.10
2022-11-03T17:55:24.714Z,14.10
2022-11-03T17:57:51.655Z,14.00
2022-11-03T18:00:21.045Z,14.10
2022-11-03T18:02:49.297Z,14.00
2022-11-03T18:05:31.388Z,14.00
2022-11-03T18:08:00.095Z,14.00
2022-11-03T18:10:33.467Z,14.00
2022-11-03T18:13:16.498Z,14.00
2022-11-03T18:16:05.472Z,14.00
2022-11-03T18:18:36.432Z,14.00
2022-11-03T18:21:03.647Z,14.00
2022-11-03T18:23:32.689Z,14.00
2022-11-03T18:26:04.384Z,14.00
2022-11-03T18:28:30.949Z,14.00
2022-11-03T18:30:58.859Z,14.00
2022-11-03T18:33:32.989Z,14.00
2022-11-03T18:36:03.012Z,14.00
2022-11-03T18:38:30.115Z,14.00
2022-11-03T18:40:56.818Z,14.00
2022-11-03T18:43:25.001Z,14.00
2022-11-03T18:45:52.917Z,14.00
2022-11-03T18:48:19.846Z,13.90
2022-11-03T18:50:57.196Z,14.00
2022-11-03T18:53:25.940Z,14.00
2022-11-03T18:55:53.866Z,14.00
2022-11-03T18:58:23.596Z,14.00
2022-11-03T19:00:52.644Z,14.00
2022-11-03T19:03:22.032Z,14.00
2022-11-03T19:05:50.959Z,13.90
2022-11-03T19:08:22.319Z,13.90
2022-11-03T19:10:50.004Z,13.90
2022-11-03T19:13:34.753Z,13.90
2022-11-03T19:16:05.368Z,13.90
2022-11-03T19:18:35.372Z,13.90
2022-11-03T19:21:02.028Z,13.90
2022-11-03T19:23:28.755Z,13.90
2022-11-03T19:25:59.211Z,13.90
2022-11-03T19:28:27.684Z,13.90
2022-11-03T19:30:57.828Z,13.90
2022-11-03T19:33:28.672Z,13.90
2022-11-03T19:35:59.282Z,13.80
2022-11-03T19:38:26.017Z,13.80
2022-11-03T19:41:11.412Z,13.80
2022-11-03T19:43:38.008Z,13.80
2022-11-03T19:46:05.112Z,13.80
2022-11-03T19:48:33.818Z,13.80
2022-11-03T19:51:00.632Z,13.80
2022-11-03T19:53:29.420Z,13.70
2022-11-03T19:55:56.868Z,13.70
2022-11-03T19:58:29.060Z,13.70
2022-11-03T20:00:56.801Z,13.70
2022-11-03T20:03:25.147Z,13.70
2022-11-03T20:05:56.951Z,13.70
2022-11-03T20:08:25.743Z,13.70
2022-11-03T20:10:52.671Z,13.70
2022-11-03T20:13:22.533Z,13.70
2022-11-03T20:15:49.529Z,13.70
2022-11-03T20:18:21.749Z,13.70
2022-11-03T20:20:49.369Z,13.70
2022-11-03T20:23:21.889Z,13.70
2022-11-03T20:25:49.411Z,13.70
2022-11-03T20:28:28.483Z,13.60
2022-11-03T20:30:56.158Z,13.60
2022-11-03T20:33:24.881Z,13.60
2022-11-03T20:35:53.372Z,13.60
2022-11-03T20:38:20.602Z,13.60
2022-11-03T20:40:49.055Z,13.60
2022-11-03T20:43:40.083Z,13.60
2022-11-03T20:46:32.097Z,13.60
2022-11-03T20:48:59.840Z,13.60
2022-11-03T20:51:32.511Z,13.60
2022-11-03T20:53:59.674Z,13.60
2022-11-03T20:56:28.468Z,13.50
2022-11-03T20:58:55.890Z,13.50
2022-11-03T21:01:33.305Z,13.50
2022-11-03T21:04:01.770Z,13.50
2022-11-03T21:06:30.722Z,13.50
2022-11-03T21:08:57.762Z,13.50
2022-11-03T21:11:28.000Z,13.50
2022-11-03T21:13:59.235Z,13.50
2022-11-03T21:16:48.314Z,13.40
2022-11-03T21:19:36.610Z,13.40
2022-11-03T21:22:50.205Z,13.40
2022-11-03T21:25:14.687Z,13.40
2022-11-03T21:27:42.061Z,13.40
2022-11-03T21:30:11.892Z,13.40
2022-11-03T21:32:38.508Z,13.40
2022-11-03T21:35:08.533Z,13.40
2022-11-03T21:37:35.261Z,13.40
2022-11-03T21:40:01.907Z,13.40
2022-11-03T21:42:47.055Z,13.40
2022-11-03T21:45:14.802Z,13.30
2022-11-03T21:48:01.354Z,13.30
2022-11-03T21:50:27.912Z,13.30
2022-11-03T21:52:54.564Z,13.30
2022-11-03T21:55:21.175Z,13.30
2022-11-03T21:57:47.764Z,13.30
2022-11-03T22:00:15.939Z,13.30
2022-11-03T22:02:42.552Z,13.20
2022-11-03T22:05:11.010Z,13.20
2022-11-03T22:07:37.888Z,13.20
2022-11-03T22:10:05.193Z,13.20
2022-11-03T22:12:31.893Z,13.20
2022-11-03T22:15:16.979Z,13.20
2022-11-03T22:17:46.307Z,13.20
2022-11-03T22:20:31.046Z,13.20
2022-11-03T22:23:18.957Z,13.20
2022-11-03T22:26:08.067Z,13.10
2022-11-03T22:28:34.612Z,13.10
2022-11-03T22:31:22.707Z,13.10
2022-11-03T22:34:07.790Z,13.10
2022-11-03T22:36:34.420Z,13.10
2022-11-03T22:39:19.555Z,13.10
2022-11-03T22:42:06.622Z,13.10
2022-11-03T22:45:05.987Z,13.00
2022-11-03T22:47:32.596Z,13.00
2022-11-03T22:49:59.225Z,13.00
2022-11-03T22:52:25.803Z,13.00
2022-11-03T22:54:52.469Z,13.00
2022-11-03T22:57:21.132Z,13.00
2022-11-03T22:59:47.768Z,13.00
2022-11-03T23:02:14.445Z,13.00
2022-11-03T23:04:41.093Z,12.90
2022-11-03T23:07:09.721Z,12.90
2022-11-03T23:09:36.277Z,12.90
2022-11-03T23:12:03.087Z,12.90
2022-11-03T23:14:49.651Z,12.90
2022-11-03T23:17:16.246Z,12.90
2022-11-03T23:20:01.575Z,12.90
2022-11-03T23:22:28.237Z,12.80
2022-11-03T23:25:01.059Z,12.80
2022-11-03T23:27:28.452Z,12.80
2022-11-03T23:29:55.013Z,12.80
2022-11-03T23:32:21.583Z,12.80
2022-11-03T23:34:48.238Z,12.80
2022-11-03T23:37:14.992Z,12.80
2022-11-03T23:39:41.662Z,12.80
2022-11-03T23:42:10.419Z,12.70
2022-11-03T23:44:57.239Z,12.70
2022-11-03T23:47:42.137Z,12.80
2022-11-03T23:50:08.960Z,12.70
2022-11-03T23:52:35.615Z,12.70
2022-11-03T23:55:02.232Z,12.70
2022-11-03T23:57:47.203Z,12.70
